Time;durP1;ratioP1;P1;durP2;ratioP2;P2;SDS_P1;SDS_P2;PMS_P1;PMS_P2;Temp;Humidity;BMP_temperature;BMP_pressure;BME280_temperature;BME280_humidity;BME280_pressure;Samples;Min_cycle;Max_cycle;Signal;HPM_P1;HPM_P2
2021/12/31 00:00:00;;;;;;;3.15;1.95;;;;;;;9.03;100.00;96505.03;5050184;28;24422;-73
2021/12/31 00:02:26;;;;;;;6.28;1.67;;;;;;;9.03;100.00;96515.34;5050046;28;24469;-73
2021/12/31 00:04:53;;;;;;;2.53;1.42;;;;;;;9.01;100.00;96512.84;5050177;28;24465;-73
2021/12/31 00:07:20;;;;;;;2.08;1.27;;;;;;;9.01;100.00;96515.44;5049962;28;20866;-73
2021/12/31 00:09:47;;;;;;;2.88;1.83;;;;;;;9.03;100.00;96512.78;5049743;28;24419;-73
2021/12/31 00:12:13;;;;;;;2.25;1.90;;;;;;;9.03;100.00;96528.28;5050121;28;20799;-74
2021/12/31 00:14:40;;;;;;;2.90;1.95;;;;;;;9.01;100.00;96506.81;5053267;28;24430;-73
2021/12/31 00:17:08;;;;;;;4.10;1.80;;;;;;;8.95;100.00;96510.53;5053451;28;24424;-73
2021/12/31 00:19:39;;;;;;;2.58;1.30;;;;;;;8.95;100.00;96515.69;5053864;28;21055;-73
2021/12/31 00:22:26;;;;;;;3.60;1.80;;;;;;;8.91;100.00;96516.75;5053607;28;20804;-73
2021/12/31 00:24:52;;;;;;;1.45;1.35;;;;;;;8.91;100.00;96516.75;5053933;28;20732;-74
2021/12/31 00:27:19;;;;;;;1.60;1.40;;;;;;;8.83;100.00;96521.41;5053351;28;20775;-73
2021/12/31 00:29:45;;;;;;;2.30;1.20;;;;;;;8.85;100.00;96524.75;5053662;28;24507;-73
2021/12/31 00:32:13;;;;;;;5.18;1.40;;;;;;;8.86;100.00;96526.44;5053248;28;20821;-73
2021/12/31 00:34:40;;;;;;;1.70;1.50;;;;;;;8.93;100.00;96526.09;5053263;28;24473;-74
2021/12/31 00:37:06;;;;;;;2.63;1.63;;;;;;;8.95;100.00;96521.69;5053469;28;20755;-73
2021/12/31 00:39:32;;;;;;;2.35;2.00;;;;;;;8.95;100.00;96523.44;5053451;28;24423;-73
2021/12/31 00:41:59;;;;;;;2.50;1.90;;;;;;;8.93;100.00;96530.41;5053357;28;20766;-73
2021/12/31 00:44:26;;;;;;;5.07;2.30;;;;;;;8.93;100.00;96526.09;5053312;28;24423;-74
2021/12/31 00:46:52;;;;;;;1.88;1.60;;;;;;;8.96;100.00;96523.38;5053181;28;20763;-73
2021/12/31 00:49:20;;;;;;;1.65;1.40;;;;;;;8.90;100.00;96526.25;5053543;28;20759;-73
2021/12/31 00:51:46;;;;;;;2.50;1.50;;;;;;;8.79;100.00;96520.72;5053386;28;20796;-73
2021/12/31 00:54:13;;;;;;;4.22;1.60;;;;;;;8.83;100.00;96517.09;5053145;28;24411;-72
2021/12/31 00:56:40;;;;;;;1.70;1.20;;;;;;;8.80;100.00;96522.38;5052890;28;21152;-73
2021/12/31 00:59:06;;;;;;;1.67;1.10;;;;;;;8.80;100.00;96513.81;5052957;28;24415;-73
2021/12/31 01:01:35;;;;;;;1.13;1.00;;;;;;;8.74;100.00;96509.72;5053101;28;21163;-73
2021/12/31 01:04:02;;;;;;;2.30;1.38;;;;;;;8.62;100.00;96512.84;5053004;28;20853;-73
2021/12/31 01:06:29;;;;;;;1.67;1.25;;;;;;;8.63;100.00;96512.78;5052659;28;24415;-73
2021/12/31 01:08:56;;;;;;;4.15;1.20;;;;;;;8.61;100.00;96512.00;5052808;28;21366;-73
2021/12/31 01:11:22;;;;;;;1.48;1.10;;;;;;;8.47;100.00;96510.00;5052818;28;21308;-73
2021/12/31 01:13:51;;;;;;;2.83;1.10;;;;;;;8.44;100.00;96511.88;5052883;28;24419;-73
2021/12/31 01:16:19;;;;;;;1.95;1.00;;;;;;;8.47;100.00;96511.75;5052280;28;24432;-73
2021/12/31 01:21:33;;;;;;;2.33;1.30;;;;;;;8.44;100.00;96514.47;5052639;28;20788;-73
2021/12/31 01:24:01;;;;;;;1.20;1.02;;;;;;;8.42;100.00;96518.88;5052305;28;20716;-72
2021/12/31 01:26:27;;;;;;;3.63;1.20;;;;;;;8.37;100.00;96523.34;5052305;28;20838;-73
2021/12/31 01:28:54;;;;;;;1.95;1.10;;;;;;;8.28;100.00;96521.16;5052755;28;20783;-72
2021/12/31 01:31:21;;;;;;;1.63;1.15;;;;;;;8.24;100.00;96526.44;5052659;28;20763;-72
2021/12/31 01:33:48;;;;;;;1.50;1.17;;;;;;;8.10;100.00;96520.16;5052697;28;20855;-73
2021/12/31 01:36:14;;;;;;;2.88;1.15;;;;;;;8.12;100.00;96529.53;5052215;28;20785;-73
2021/12/31 01:38:42;;;;;;;2.10;1.17;;;;;;;8.18;100.00;96525.84;5052241;28;24913;-73
2021/12/31 01:41:09;;;;;;;1.00;0.90;;;;;;;8.14;100.00;96534.63;5052056;28;20758;-73
2021/12/31 01:43:36;;;;;;;1.95;1.30;;;;;;;8.06;100.00;96539.25;5052205;28;24771;-73
2021/12/31 01:46:10;;;;;;;1.48;1.20;;;;;;;8.03;100.00;96536.81;5051983;28;24431;-73
2021/12/31 01:48:49;;;;;;;6.45;1.48;;;;;;;7.90;100.00;96529.56;5052183;28;20720;-72
2021/12/31 01:51:15;;;;;;;1.73;1.13;;;;;;;7.78;100.00;96535.19;5051731;28;20650;-73
2021/12/31 01:53:43;;;;;;;2.78;1.58;;;;;;;7.66;100.00;96535.69;5051826;28;24423;-73
2021/12/31 01:56:10;;;;;;;2.85;1.30;;;;;;;7.60;100.00;96528.16;5051966;28;24439;-73
2021/12/31 01:58:36;;;;;;;2.05;1.20;;;;;;;7.52;100.00;96534.47;5051802;28;24949;-73
2021/12/31 02:01:06;;;;;;;3.50;1.50;;;;;;;7.49;100.00;96534.59;5051842;28;24451;-72
2021/12/31 02:03:35;;;;;;;2.47;1.20;;;;;;;7.47;100.00;96532.97;5052115;28;20808;-73
2021/12/31 02:06:01;;;;;;;2.70;1.50;;;;;;;7.37;100.00;96531.63;5051658;28;24459;-72
2021/12/31 02:08:30;;;;;;;1.77;1.30;;;;;;;7.30;100.00;96525.88;5051415;28;24509;-72
2021/12/31 02:10:58;;;;;;;2.15;1.30;;;;;;;7.25;100.00;96525.22;5051837;28;20766;-72
2021/12/31 02:13:26;;;;;;;2.35;1.33;;;;;;;7.24;100.00;96520.97;5051568;28;20759;-72
2021/12/31 02:15:53;;;;;;;2.40;1.40;;;;;;;7.21;100.00;96521.06;5051181;28;24414;-73
2021/12/31 02:18:19;;;;;;;1.60;1.30;;;;;;;7.14;100.00;96522.19;5051508;28;24411;-73
2021/12/31 02:20:48;;;;;;;1.88;1.40;;;;;;;7.17;100.00;96529.81;5051176;28;24427;-72
2021/12/31 02:23:15;;;;;;;1.60;1.40;;;;;;;7.18;100.00;96526.34;5051543;28;24518;-73
2021/12/31 02:25:42;;;;;;;2.10;1.30;;;;;;;7.19;100.00;96535.75;5051140;28;24422;-73
2021/12/31 02:28:08;;;;;;;1.70;1.33;;;;;;;7.31;100.00;96525.00;5051291;28;24535;-73
2021/12/31 02:30:35;;;;;;;1.65;1.20;;;;;;;7.37;100.00;96514.44;5051335;28;24426;-73
2021/12/31 02:33:03;;;;;;;2.05;1.30;;;;;;;7.43;100.00;96516.78;5051300;28;24411;-73
2021/12/31 02:35:30;;;;;;;3.30;1.30;;;;;;;7.40;100.00;96508.34;5050362;28;20752;-73
2021/12/31 02:37:58;;;;;;;2.33;1.33;;;;;;;7.45;100.00;96509.84;5051347;28;24457;-73
2021/12/31 02:40:27;;;;;;;2.05;1.23;;;;;;;7.47;100.00;96510.63;5051088;28;24426;-73
2021/12/31 02:42:54;;;;;;;2.47;1.23;;;;;;;7.49;100.00;96503.69;5051370;28;24423;-72
2021/12/31 02:45:28;;;;;;;1.60;1.30;;;;;;;7.43;100.00;96503.06;5051089;28;24427;-73
2021/12/31 02:47:55;;;;;;;2.00;1.30;;;;;;;7.39;100.00;96509.25;5051171;28;24526;-72
2021/12/31 02:50:30;;;;;;;2.03;1.33;;;;;;;7.40;100.00;96500.59;5051081;28;24494;-72
2021/12/31 02:52:58;;;;;;;1.40;1.30;;;;;;;7.37;100.00;96496.41;5051167;28;24519;-74
2021/12/31 02:55:26;;;;;;;2.47;1.50;;;;;;;7.45;100.00;96502.13;5051099;28;20759;-72
2021/12/31 02:57:52;;;;;;;1.60;1.35;;;;;;;7.49;100.00;96498.53;5050810;28;24427;-72
2021/12/31 03:00:19;;;;;;;2.30;1.40;;;;;;;7.41;100.00;96503.09;5050689;28;24971;-73
2021/12/31 03:02:46;;;;;;;1.88;1.40;;;;;;;7.43;100.00;96490.19;5050932;28;20857;-73
2021/12/31 03:05:14;;;;;;;1.85;1.08;;;;;;;7.45;100.00;96485.78;5050745;28;24430;-73
2021/12/31 03:07:43;;;;;;;1.42;1.10;;;;;;;7.40;100.00;96475.66;5050498;28;24461;-73
2021/12/31 03:10:11;;;;;;;1.95;1.13;;;;;;;7.32;100.00;96475.13;5050820;28;20746;-73
2021/12/31 03:12:39;;;;;;;1.45;1.08;;;;;;;7.36;100.00;96481.00;5050468;28;24422;-72
2021/12/31 03:15:07;;;;;;;1.80;1.20;;;;;;;7.25;100.00;96479.66;5050330;28;24422;-72
2021/12/31 03:17:34;;;;;;;1.65;1.40;;;;;;;7.22;100.00;96478.94;5050486;28;24476;-74
2021/12/31 03:20:10;;;;;;;3.33;1.30;;;;;;;7.14;100.00;96476.66;5050597;28;24438;-72
2021/12/31 03:22:36;;;;;;;2.03;1.27;;;;;;;7.14;100.00;96484.41;5050630;28;24433;-73
2021/12/31 03:25:03;;;;;;;1.48;1.25;;;;;;;7.15;100.00;96482.66;5050441;28;24435;-73
2021/12/31 03:27:31;;;;;;;3.03;1.40;;;;;;;7.11;100.00;96484.50;5050081;28;24415;-73
2021/12/31 03:29:58;;;;;;;1.50;1.17;;;;;;;7.02;100.00;96484.88;5050517;28;24456;-73
2021/12/31 03:32:25;;;;;;;2.08;1.45;;;;;;;6.98;100.00;96476.41;5050385;28;24482;-72
2021/12/31 03:34:51;;;;;;;2.67;1.35;;;;;;;7.01;100.00;96476.31;5050407;28;24435;-72
2021/12/31 03:37:18;;;;;;;1.83;1.30;;;;;;;6.93;100.00;96486.03;5050214;28;21220;-73
2021/12/31 03:39:44;;;;;;;1.90;1.23;;;;;;;6.95;100.00;96485.97;5050291;28;24419;-72
2021/12/31 03:42:14;;;;;;;3.07;1.20;;;;;;;6.87;100.00;96491.41;5050095;28;24474;-73
2021/12/31 03:44:42;;;;;;;1.27;1.10;;;;;;;6.88;100.00;96485.38;5050254;28;24419;-73
2021/12/31 03:47:09;;;;;;;1.15;0.98;;;;;;;6.93;100.00;96491.16;5051061;28;24404;-73
2021/12/31 03:49:35;;;;;;;3.30;0.98;;;;;;;6.93;100.00;96491.16;5054249;28;24446;-73
2021/12/31 03:52:02;;;;;;;0.85;0.70;;;;;;;6.77;100.00;96484.91;5054274;28;24829;-73
2021/12/31 03:54:28;;;;;;;1.30;0.77;;;;;;;6.61;100.00;96486.38;5054436;28;24427;-73
2021/12/31 03:56:55;;;;;;;0.68;0.65;;;;;;;6.57;100.00;96489.97;5053899;28;24415;-73
2021/12/31 03:59:21;;;;;;;1.50;0.70;;;;;;;6.55;100.00;96488.25;5054581;28;24418;-73
2021/12/31 04:01:49;;;;;;;1.33;0.80;;;;;;;6.55;100.00;96487.41;5054520;28;24422;-73
2021/12/31 04:04:15;;;;;;;1.80;1.10;;;;;;;6.59;100.00;96488.16;5054515;28;24423;-73
2021/12/31 04:06:42;;;;;;;1.88;1.00;;;;;;;6.54;100.00;96491.72;5053688;28;25002;-73
2021/12/31 04:09:09;;;;;;;1.77;1.25;;;;;;;6.51;100.00;96501.28;5053653;28;24443;-73
2021/12/31 04:11:35;;;;;;;2.00;1.40;;;;;;;6.53;100.00;96492.63;5053951;28;24423;-73
2021/12/31 04:14:02;;;;;;;1.30;1.10;;;;;;;6.58;100.00;96496.78;5053661;28;24423;-73
2021/12/31 04:16:30;;;;;;;1.63;0.80;;;;;;;6.62;100.00;96498.34;5053526;28;24834;-72
2021/12/31 04:18:58;;;;;;;1.05;0.75;;;;;;;6.49;100.00;96482.50;5053723;28;24431;-73
2021/12/31 04:21:25;;;;;;;1.95;1.27;;;;;;;6.55;100.00;96482.28;5053605;28;24423;-73
2021/12/31 04:24:03;;;;;;;1.73;1.25;;;;;;;6.42;100.00;96483.63;5053509;28;24426;-72
2021/12/31 04:26:30;;;;;;;2.00;1.20;;;;;;;6.51;100.00;96488.44;5053415;28;24435;-72
2021/12/31 04:28:57;;;;;;;1.38;0.88;;;;;;;6.25;100.00;96479.88;5053502;28;24443;-72
2021/12/31 04:31:23;;;;;;;2.55;1.10;;;;;;;6.19;100.00;96479.25;5053529;28;24423;-73
2021/12/31 04:33:50;;;;;;;4.90;0.97;;;;;;;6.17;100.00;96470.75;5053290;28;24981;-72
2021/12/31 04:36:18;;;;;;;3.63;0.80;;;;;;;6.18;100.00;96472.44;5052917;28;24979;-73
2021/12/31 04:38:44;;;;;;;1.05;0.82;;;;;;;6.04;100.00;96475.44;5053368;28;24936;-73
2021/12/31 04:41:10;;;;;;;1.15;0.77;;;;;;;6.02;100.00;96477.25;5053260;28;24439;-72
2021/12/31 04:43:37;;;;;;;1.60;0.80;;;;;;;6.00;100.00;96469.56;5053439;28;24418;-72
2021/12/31 04:46:03;;;;;;;1.02;0.82;;;;;;;5.95;100.00;96475.78;5053028;28;24472;-72
2021/12/31 04:48:30;;;;;;;2.80;0.93;;;;;;;5.87;100.00;96473.44;5053165;28;24513;-72
2021/12/31 04:50:56;;;;;;;1.42;1.02;;;;;;;5.85;100.00;96472.63;5052810;28;24439;-72
2021/12/31 04:53:24;;;;;;;1.10;1.00;;;;;;;5.90;100.00;96473.34;5053379;28;24435;-72
2021/12/31 04:55:51;;;;;;;1.80;1.50;;;;;;;5.91;100.00;96466.47;5052657;28;24423;-72
2021/12/31 04:58:17;;;;;;;3.15;1.85;;;;;;;6.00;100.00;96467.00;5052857;28;24438;-73
2021/12/31 05:00:43;;;;;;;3.67;2.42;;;;;;;5.95;100.00;96462.91;5052530;28;24426;-73
2021/12/31 05:03:11;;;;;;;1.98;1.77;;;;;;;5.86;100.00;96458.91;5052755;28;24944;-73
2021/12/31 05:05:38;;;;;;;2.47;1.73;;;;;;;5.88;100.00;96463.97;5052406;28;24419;-73
2021/12/31 05:08:05;;;;;;;3.20;2.50;;;;;;;5.94;100.00;96469.78;5053049;28;24423;-72
2021/12/31 05:10:33;;;;;;;3.75;2.67;;;;;;;5.84;100.00;96470.94;5052891;28;24451;-72
2021/12/31 05:13:01;;;;;;;2.35;2.15;;;;;;;5.74;100.00;96474.72;5052597;28;24431;-72
2021/12/31 05:15:31;;;;;;;3.30;2.25;;;;;;;5.43;100.00;96469.72;5052331;28;24809;-73
2021/12/31 05:17:58;;;;;;;8.37;2.47;;;;;;;5.22;100.00;96468.63;5052504;28;24508;-72
2021/12/31 05:20:24;;;;;;;5.53;2.60;;;;;;;5.16;100.00;96468.84;5052554;28;24975;-73
2021/12/31 05:22:52;;;;;;;11.90;2.00;;;;;;;5.13;100.00;96472.34;5052565;28;24489;-72
2021/12/31 05:25:19;;;;;;;4.00;1.70;;;;;;;5.28;100.00;96479.56;5052255;28;24415;-73
2021/12/31 05:27:46;;;;;;;2.75;1.98;;;;;;;5.27;100.00;96474.50;5052295;28;24961;-72
2021/12/31 05:30:13;;;;;;;4.10;2.90;;;;;;;5.27;100.00;96469.34;5052300;28;24497;-73
2021/12/31 05:32:39;;;;;;;3.58;2.25;;;;;;;5.38;100.00;96474.13;5061841;22;24419;-73
2021/12/31 05:35:07;;;;;;;3.78;2.40;;;;;;;5.33;100.00;96461.44;5050974;28;24447;-73
2021/12/31 05:37:34;;;;;;;14.90;2.50;;;;;;;5.39;100.00;96463.84;5051912;28;24832;-73
2021/12/31 05:40:00;;;;;;;12.50;2.10;;;;;;;5.38;100.00;96451.03;5052306;28;24412;-73
2021/12/31 05:42:26;;;;;;;27.55;2.25;;;;;;;5.41;100.00;96445.78;5052258;28;24534;-73
2021/12/31 05:44:54;;;;;;;7.73;2.10;;;;;;;5.49;100.00;96448.97;5051837;28;24518;-72
2021/12/31 05:47:21;;;;;;;18.67;2.50;;;;;;;5.29;100.00;96449.59;5051762;28;24796;-72
2021/12/31 05:49:48;;;;;;;16.63;1.70;;;;;;;5.26;100.00;96445.38;5052124;28;24447;-73
2021/12/31 05:52:15;;;;;;;13.10;1.35;;;;;;;5.36;100.00;96443.38;5052082;28;24465;-73
2021/12/31 05:54:41;;;;;;;26.38;2.15;;;;;;;5.49;100.00;96444.69;5051908;28;24468;-73
2021/12/31 05:57:07;;;;;;;9.30;1.52;;;;;;;5.55;100.00;96446.19;5051606;28;24528;-72
2021/12/31 05:59:34;;;;;;;8.88;1.75;;;;;;;5.34;100.00;96452.88;5051852;28;24426;-72
2021/12/31 06:02:02;;;;;;;8.20;1.63;;;;;;;5.22;100.00;96459.19;5051459;28;24423;-73
2021/12/31 06:04:28;;;;;;;17.92;1.30;;;;;;;5.02;100.00;96474.38;5051699;28;24431;-74
2021/12/31 06:06:54;;;;;;;10.07;0.90;;;;;;;4.93;100.00;96472.06;5051517;28;24430;-73
2021/12/31 06:09:21;;;;;;;14.02;0.90;;;;;;;4.89;100.00;96465.34;5051681;28;24439;-72
2021/12/31 06:11:47;;;;;;;3.80;0.75;;;;;;;4.95;100.00;96454.91;5050722;28;24415;-73
2021/12/31 06:14:14;;;;;;;5.45;0.70;;;;;;;5.06;100.00;96465.69;5051497;28;24459;-73
2021/12/31 06:16:42;;;;;;;6.80;0.80;;;;;;;5.16;100.00;96456.00;5051289;28;24427;-72
2021/12/31 06:19:11;;;;;;;6.45;0.85;;;;;;;5.16;100.00;96454.28;5051644;28;24510;-72
2021/12/31 06:21:39;;;;;;;4.30;0.70;;;;;;;5.18;100.00;96454.22;5051550;28;24469;-72
2021/12/31 06:24:07;;;;;;;21.83;1.23;;;;;;;5.10;100.00;96455.28;5051386;28;24831;-71
2021/12/31 06:26:33;;;;;;;16.45;1.10;;;;;;;5.00;100.00;96450.47;5051013;28;24781;-72
2021/12/31 06:29:00;;;;;;;25.63;1.10;;;;;;;4.99;100.00;96454.78;5051449;28;24423;-71
2021/12/31 06:31:27;;;;;;;24.60;1.00;;;;;;;4.99;100.00;96453.94;5051434;28;24427;-73
2021/12/31 06:33:54;;;;;;;9.85;0.80;;;;;;;5.11;100.00;96461.25;5051027;28;24430;-72
2021/12/31 06:36:22;;;;;;;2.17;0.63;;;;;;;5.21;100.00;96466.97;5050957;28;24415;-73
2021/12/31 06:38:50;;;;;;;51.30;1.53;;;;;;;5.17;100.00;96460.25;5051137;28;24469;-73
2021/12/31 06:41:16;;;;;;;41.97;1.45;;;;;;;5.15;100.00;96459.44;5051095;28;24446;-72
2021/12/31 06:43:43;;;;;;;10.82;0.55;;;;;;;5.19;100.00;96458.47;5051048;28;24510;-73
2021/12/31 06:46:09;;;;;;;33.08;1.55;;;;;;;5.12;100.00;96456.97;5050738;28;24461;-72
2021/12/31 06:48:36;;;;;;;21.25;1.90;;;;;;;5.00;100.00;96461.56;5050860;28;25002;-72
2021/12/31 06:51:02;;;;;;;46.28;3.55;;;;;;;4.85;100.00;96465.44;5050830;28;24443;-72
2021/12/31 06:53:30;;;;;;;28.70;1.90;;;;;;;4.93;100.00;96457.53;5050728;28;25010;-73
2021/12/31 06:55:56;;;;;;;8.20;1.40;;;;;;;5.10;100.00;96462.16;5050379;28;24423;-72
2021/12/31 06:58:23;;;;;;;10.15;1.75;;;;;;;5.20;100.00;96473.00;5050985;28;24426;-72
2021/12/31 07:00:49;;;;;;;8.40;1.90;;;;;;;5.19;100.00;96476.44;5050718;28;24411;-73
2021/12/31 07:03:16;;;;;;;8.43;1.77;;;;;;;5.27;100.00;96477.06;5051412;28;24484;-71
2021/12/31 07:05:43;;;;;;;17.55;2.45;;;;;;;5.28;100.00;96489.84;5050305;28;24473;-71
2021/12/31 07:08:11;;;;;;;6.22;2.15;;;;;;;5.28;100.00;96489.00;5050321;28;24489;-71
2021/12/31 07:10:39;;;;;;;7.50;1.40;;;;;;;5.36;100.00;96483.63;5050241;28;24529;-71
2021/12/31 07:13:10;;;;;;;4.22;1.27;;;;;;;5.56;100.00;96482.13;5050482;28;24446;-71
2021/12/31 07:15:38;;;;;;;15.32;1.40;;;;;;;5.35;100.00;96487.94;5049827;28;24430;-71
2021/12/31 07:18:05;;;;;;;10.05;1.60;;;;;;;5.43;100.00;96492.84;5049090;28;24488;-71
2021/12/31 07:20:31;;;;;;;9.57;1.25;;;;;;;5.29;100.00;96485.53;5049731;28;24979;-72
2021/12/31 07:23:03;;;;;;;7.05;1.67;;;;;;;5.19;100.00;96487.56;5049642;28;24952;-72
2021/12/31 07:25:30;;;;;;;6.20;1.33;;;;;;;5.18;100.00;96479.91;5050410;28;24428;-72
2021/12/31 07:27:57;;;;;;;15.15;1.58;;;;;;;5.27;100.00;96490.75;5050335;28;24955;-71
2021/12/31 07:30:24;;;;;;;4.35;1.17;;;;;;;5.27;100.00;96479.63;5050456;28;24443;-71
2021/12/31 07:32:50;;;;;;;20.80;1.30;;;;;;;5.20;100.00;96481.53;5050213;28;24473;-71
2021/12/31 07:35:17;;;;;;;21.60;1.30;;;;;;;5.19;100.00;96479.00;5050262;28;24819;-71
2021/12/31 07:37:43;;;;;;;19.73;1.20;;;;;;;5.23;100.00;96478.03;5049933;28;24426;-72
2021/12/31 07:40:12;;;;;;;24.10;1.27;;;;;;;5.23;100.00;96476.31;5050544;28;24419;-74
2021/12/31 07:42:39;;;;;;;12.13;1.30;;;;;;;5.27;100.00;96477.06;5050227;28;24420;-72
2021/12/31 07:45:07;;;;;;;26.23;1.58;;;;;;;5.23;100.00;96475.47;5050226;28;24416;-72
2021/12/31 07:47:34;;;;;;;15.35;1.25;;;;;;;5.27;100.00;96474.50;5050020;28;24948;-72
2021/12/31 07:50:01;;;;;;;11.18;1.10;;;;;;;5.29;100.00;96480.41;5050112;28;24470;-71
2021/12/31 07:52:27;;;;;;;4.75;1.00;;;;;;;5.34;100.00;96487.09;5050065;28;24423;-71
2021/12/31 07:54:54;;;;;;;0.80;0.80;;;;;;;5.43;100.00;96485.97;5050209;28;24435;-72
2021/12/31 07:57:20;;;;;;;1.38;0.85;;;;;;;5.52;100.00;96488.22;5049870;28;24862;-71
2021/12/31 07:59:47;;;;;;;1.65;1.02;;;;;;;5.57;100.00;96488.94;5050163;28;24427;-72
2021/12/31 08:02:14;;;;;;;7.28;1.05;;;;;;;5.64;100.00;96489.59;5050082;28;24514;-71
2021/12/31 08:04:41;;;;;;;25.17;1.63;;;;;;;5.53;100.00;96487.38;5049838;28;24835;-72
2021/12/31 08:07:07;;;;;;;6.00;1.10;;;;;;;5.64;100.00;96487.03;5049711;28;24482;-72
2021/12/31 08:09:34;;;;;;;23.52;1.63;;;;;;;5.42;100.00;96498.88;5050062;28;24451;-72
2021/12/31 08:12:00;;;;;;;8.20;1.08;;;;;;;5.43;100.00;96498.81;5050013;28;24415;-71
2021/12/31 08:14:26;;;;;;;14.20;1.30;;;;;;;5.42;100.00;96501.44;5049969;28;24900;-72
2021/12/31 08:16:53;;;;;;;14.55;1.48;;;;;;;5.33;100.00;96505.94;5049588;28;24426;-71
2021/12/31 08:19:21;;;;;;;3.72;1.23;;;;;;;5.37;100.00;96514.41;5049870;28;24827;-71
2021/12/31 08:21:47;;;;;;;11.57;1.50;;;;;;;5.43;100.00;96510.81;5050142;28;24820;-72
2021/12/31 08:24:13;;;;;;;26.42;1.80;;;;;;;5.33;100.00;96512.81;5049761;28;25003;-72
2021/12/31 08:26:41;;;;;;;13.55;2.10;;;;;;;5.42;100.00;96512.56;5049542;28;24422;-72
2021/12/31 08:29:08;;;;;;;7.93;1.55;;;;;;;5.49;100.00;96516.63;5050197;28;25036;-72
2021/12/31 08:31:35;;;;;;;29.70;2.13;;;;;;;5.42;100.00;96516.84;5050061;28;24446;-71
2021/12/31 08:34:01;;;;;;;28.67;2.30;;;;;;;5.47;100.00;96513.25;5050406;28;24493;-72
2021/12/31 08:36:29;;;;;;;27.13;2.90;;;;;;;5.41;100.00;96505.72;5053322;28;24789;-72
2021/12/31 08:38:55;;;;;;;9.15;1.52;;;;;;;5.57;100.00;96501.78;5053621;28;24430;-72
2021/12/31 08:41:22;;;;;;;11.13;2.13;;;;;;;5.64;100.00;96496.47;5053679;28;25005;-72
2021/12/31 08:43:48;;;;;;;29.60;2.33;;;;;;;5.47;100.00;96500.41;5053514;28;24991;-71
2021/12/31 08:46:15;;;;;;;39.00;2.60;;;;;;;5.40;100.00;96493.75;5052776;28;24972;-73
2021/12/31 08:48:41;;;;;;;8.10;1.92;;;;;;;5.50;100.00;96484.88;5053086;28;24945;-72
2021/12/31 08:51:08;;;;;;;9.32;1.13;;;;;;;5.67;100.00;96486.06;5053257;28;24446;-72
2021/12/31 08:53:35;;;;;;;14.98;1.30;;;;;;;5.49;100.00;96487.53;5052920;28;25007;-72
2021/12/31 08:56:02;;;;;;;20.70;1.42;;;;;;;5.44;100.00;96491.94;5052904;28;24510;-71
2021/12/31 08:58:28;;;;;;;12.95;1.38;;;;;;;5.39;100.00;96488.69;5052915;28;24419;-71
2021/12/31 09:00:55;;;;;;;5.68;1.30;;;;;;;5.47;100.00;96481.56;5053246;28;24465;-72
2021/12/31 09:03:21;;;;;;;24.88;1.90;;;;;;;5.39;100.00;96486.13;5052880;28;24427;-72
2021/12/31 09:05:48;;;;;;;14.63;1.65;;;;;;;5.38;100.00;96477.56;5052745;28;24415;-72
2021/12/31 09:08:15;;;;;;;26.38;2.38;;;;;;;5.43;100.00;96480.81;5052939;28;24473;-72
2021/12/31 09:10:42;;;;;;;18.00;1.80;;;;;;;5.48;100.00;96481.50;5052882;28;24562;-72
2021/12/31 09:13:09;;;;;;;26.90;1.40;;;;;;;5.46;100.00;96469.63;5052694;28;24442;-71
2021/12/31 09:15:35;;;;;;;6.50;0.90;;;;;;;5.56;100.00;96471.00;5052351;28;24518;-71
2021/12/31 09:18:02;;;;;;;1.13;0.82;;;;;;;5.57;100.00;96468.38;5052931;28;24427;-72
2021/12/31 09:20:29;;;;;;;0.93;0.70;;;;;;;5.79;100.00;96465.13;5052708;28;24419;-71
2021/12/31 09:22:55;;;;;;;1.13;0.90;;;;;;;5.88;100.00;96469.97;5052688;28;24417;-71
2021/12/31 09:25:23;;;;;;;1.15;1.05;;;;;;;5.98;100.00;96453.38;5052284;28;25171;-71
2021/12/31 09:27:51;;;;;;;0.80;0.80;;;;;;;5.95;100.00;96450.06;5052336;28;24522;-71
2021/12/31 09:30:17;;;;;;;0.70;0.70;;;;;;;5.88;100.00;96454.53;5052322;28;24446;-71
2021/12/31 09:32:44;;;;;;;0.85;0.82;;;;;;;5.98;100.00;96457.69;5052367;28;24419;-71
2021/12/31 09:35:10;;;;;;;1.30;1.20;;;;;;;6.03;100.00;96450.63;5052407;28;24426;-71
2021/12/31 09:37:37;;;;;;;1.15;0.93;;;;;;;6.05;100.00;96446.31;5052112;28;24418;-71
2021/12/31 09:40:05;;;;;;;5.18;1.60;;;;;;;6.13;100.00;96453.75;5052099;28;24477;-71
2021/12/31 09:42:31;;;;;;;1.10;1.00;;;;;;;6.16;100.00;96454.47;5052036;28;25047;-71
2021/12/31 09:44:59;;;;;;;2.83;1.20;;;;;;;6.12;100.00;96460.63;5051999;28;24441;-71
2021/12/31 09:47:25;;;;;;;1.25;0.93;;;;;;;6.18;100.00;96467.28;5052000;28;24415;-71
2021/12/31 09:49:52;;;;;;;1.70;1.00;;;;;;;6.15;100.00;96472.53;5052039;28;24469;-72
2021/12/31 09:52:19;;;;;;;3.67;1.17;;;;;;;6.15;100.00;96478.50;5051953;28;24423;-71
2021/12/31 09:54:47;;;;;;;0.88;0.88;;;;;;;6.18;100.00;96475.84;5051804;28;24828;-71
2021/12/31 09:57:14;;;;;;;2.20;1.00;;;;;;;6.12;100.00;96481.19;5051522;28;24419;-73
2021/12/31 09:59:41;;;;;;;1.05;0.95;;;;;;;6.15;100.00;96477.66;5051998;28;24984;-74
2021/12/31 10:02:10;;;;;;;1.80;1.20;;;;;;;6.10;100.00;96477.84;5052326;28;24425;-74
2021/12/31 10:04:53;;;;;;;1.90;0.90;;;;;;;6.22;100.00;96479.97;5047574;28;24973;-74
2021/12/31 10:07:21;;;;;;;1.35;1.08;;;;;;;6.35;100.00;96469.28;5031417;28;24451;-72
2021/12/31 10:10:03;;;;;;;1.25;0.98;;;;;;;6.37;100.00;96470.88;5031524;28;24432;-69
2021/12/31 10:12:44;;;;;;;2.53;0.90;;;;;;;6.31;100.00;96468.56;5031582;28;24956;-71
2021/12/31 10:15:11;;;;;;;1.30;1.00;;;;;;;6.27;100.00;96457.53;5052076;28;24521;-71
2021/12/31 10:17:38;;;;;;;0.70;0.70;;;;;;;6.31;100.00;96458.25;5071178;28;24438;-73
2021/12/31 10:20:06;;;;;;;1.10;0.90;;;;;;;6.30;100.00;96456.56;5071485;28;24947;-73
2021/12/31 10:22:33;;;;;;;4.03;1.23;;;;;;;6.32;100.00;96456.53;5065305;28;24528;-71
2021/12/31 10:24:59;;;;;;;4.13;1.40;;;;;;;6.29;100.00;96460.03;5046363;28;24443;-71
2021/12/31 10:27:26;;;;;;;4.93;1.48;;;;;;;6.23;100.00;96455.97;5050999;28;24514;-71
2021/12/31 10:29:53;;;;;;;1.60;1.08;;;;;;;6.33;100.00;96456.47;5050851;28;24427;-71
2021/12/31 10:32:20;;;;;;;7.25;1.50;;;;;;;6.29;100.00;96455.72;5050881;28;24443;-71
2021/12/31 10:34:48;;;;;;;15.13;1.38;;;;;;;6.22;100.00;96450.84;5048609;28;24489;-71
2021/12/31 10:37:17;;;;;;;2.10;1.17;;;;;;;6.15;100.00;96444.22;5057985;28;24439;-71
2021/12/31 10:39:44;;;;;;;2.15;1.25;;;;;;;6.28;100.00;96436.03;5070907;28;24522;-72
2021/12/31 10:42:12;;;;;;;1.95;1.30;;;;;;;6.25;100.00;96427.59;5050584;28;24432;-72
2021/12/31 10:44:43;;;;;;;4.40;2.85;;;;;;;6.40;100.00;96427.03;5048492;28;24430;-71
2021/12/31 10:47:12;;;;;;;3.10;2.80;;;;;;;6.51;100.00;96422.34;5042942;28;24514;-72
2021/12/31 10:50:13;;;;;;;1.45;1.35;;;;;;;6.43;100.00;96424.38;5042077;28;24486;-72
2021/12/31 10:52:45;;;;;;;1.42;1.23;;;;;;;6.48;100.00;96440.47;5039887;28;24440;-71
2021/12/31 10:55:18;;;;;;;2.45;1.40;;;;;;;6.61;100.00;96453.75;5042886;28;24453;-72
2021/12/31 10:57:46;;;;;;;1.83;1.10;;;;;;;6.58;100.00;96443.56;5041722;28;24538;-72
2021/12/31 11:00:14;;;;;;;2.75;1.70;;;;;;;6.65;100.00;96436.47;5039521;28;24486;-72
2021/12/31 11:02:42;;;;;;;4.20;1.70;;;;;;;6.61;100.00;96435.75;5042844;28;24500;-72
2021/12/31 11:05:11;;;;;;;3.50;1.35;;;;;;;6.61;100.00;96427.19;5042658;28;24439;-71
2021/12/31 11:07:40;;;;;;;1.60;1.23;;;;;;;6.65;100.00;96418.44;5038793;28;24434;-71
2021/12/31 11:10:08;;;;;;;3.53;1.80;;;;;;;6.68;100.00;96414.03;5037976;28;24439;-71
2021/12/31 11:12:38;;;;;;;3.70;1.42;;;;;;;6.65;100.00;96410.72;5038100;28;24456;-72
2021/12/31 11:15:06;;;;;;;4.13;1.85;;;;;;;6.77;100.00;96405.13;5039165;28;24443;-71
2021/12/31 11:17:32;;;;;;;18.23;1.92;;;;;;;6.79;100.00;96400.75;5037507;28;24995;-72
2021/12/31 11:20:00;;;;;;;1.70;1.58;;;;;;;6.83;100.00;96399.75;5040330;28;24432;-71
2021/12/31 11:22:29;;;;;;;2.75;2.20;;;;;;;6.90;100.00;96406.34;5041582;28;24458;-72
2021/12/31 11:25:19;;;;;;;1.98;1.80;;;;;;;6.95;100.00;96399.25;5045412;28;24450;-71
2021/12/31 11:27:48;;;;;;;4.47;2.03;;;;;;;6.92;100.00;96394.22;5049096;28;24840;-71
2021/12/31 11:30:29;;;;;;;2.35;2.13;;;;;;;6.94;100.00;96404.50;5048292;28;25098;-71
2021/12/31 11:32:59;;;;;;;5.57;2.10;;;;;;;6.95;100.00;96393.28;5040315;28;24812;-72
2021/12/31 11:35:34;;;;;;;4.03;2.10;;;;;;;6.96;100.00;96393.22;5043734;28;24454;-72